Time;durP1;ratioP1;P1;durP2;ratioP2;P2;SDS_P1;SDS_P2;PMS_P1;PMS_P2;Temp;Humidity;BMP_temperature;BMP_pressure;BME280_temperature;BME280_humidity;BME280_pressure;Samples;Min_cycle;Max_cycle;Signal;HPM_P1;HPM_P2
2021/03/27 00:01:23;;;;;;;7.50;6.80;;;15.20;47.20;;;;;;5089396;28;20663;-52
2021/03/27 00:03:51;;;;;;;8.10;7.30;;;15.20;47.10;;;;;;5089523;28;20659;-53
2021/03/27 00:06:21;;;;;;;9.27;8.37;;;15.20;47.20;;;;;;5088999;28;20667;-53
2021/03/27 00:08:51;;;;;;;9.10;8.20;;;15.20;47.20;;;;;;5088748;28;20691;-53
2021/03/27 00:11:19;;;;;;;8.37;7.60;;;15.20;47.40;;;;;;5089389;28;20671;-53
2021/03/27 00:13:52;;;;;;;10.90;8.40;;;15.20;47.40;;;;;;5089801;28;20988;-53
2021/03/27 00:16:22;;;;;;;9.07;8.27;;;15.30;47.40;;;;;;5086182;28;21063;-53
2021/03/27 00:18:57;;;;;;;9.27;8.47;;;15.30;47.40;;;;;;5088655;28;20680;-53
2021/03/27 00:21:34;;;;;;;11.20;8.40;;;15.20;47.60;;;;;;5065126;28;20629;-51
2021/03/27 00:24:04;;;;;;;10.93;9.83;;;15.10;47.60;;;;;;5084884;28;20656;-53
2021/03/27 00:26:32;;;;;;;13.30;9.67;;;15.00;47.70;;;;;;5083592;28;20713;-55
2021/03/27 00:29:03;;;;;;;10.73;9.43;;;15.00;47.80;;;;;;5071730;28;20712;-57
2021/03/27 00:31:33;;;;;;;12.13;9.67;;;14.90;47.90;;;;;;5068137;28;20688;-52
2021/03/27 00:34:01;;;;;;;11.30;9.30;;;14.90;48.00;;;;;;5080456;28;20688;-51
2021/03/27 00:36:33;;;;;;;9.57;8.67;;;14.90;48.10;;;;;;5088503;28;21208;-52
2021/03/27 00:39:02;;;;;;;9.50;8.60;;;14.90;48.10;;;;;;5083250;28;20680;-54
2021/03/27 00:41:33;;;;;;;9.80;8.83;;;14.80;48.30;;;;;;5082494;28;20652;-53
2021/03/27 00:44:01;;;;;;;12.13;9.30;;;14.80;48.30;;;;;;5088045;28;20697;-53
2021/03/27 00:46:28;;;;;;;10.47;9.20;;;14.80;48.90;;;;;;5068698;28;20664;-55
2021/03/27 00:48:58;;;;;;;8.60;7.67;;;14.80;48.70;;;;;;5084496;28;20713;-54
2021/03/27 00:51:26;;;;;;;11.57;9.43;;;14.80;48.80;;;;;;5088873;28;20651;-51
2021/03/27 00:53:55;;;;;;;10.27;9.13;;;14.80;48.90;;;;;;5088941;28;21262;-52
2021/03/27 00:56:23;;;;;;;9.83;8.93;;;14.70;48.90;;;;;;5070379;28;20996;-50
2021/03/27 00:58:51;;;;;;;11.20;8.27;;;14.70;49.10;;;;;;5070252;28;20637;-51
2021/03/27 01:01:18;;;;;;;8.47;7.60;;;14.70;49.20;;;;;;5089040;28;20655;-53
2021/03/27 01:03:49;;;;;;;9.00;8.07;;;14.70;49.30;;;;;;5088392;28;21156;-52
2021/03/27 01:06:16;;;;;;;9.97;8.77;;;14.70;49.40;;;;;;5070904;28;20624;-52
2021/03/27 01:08:44;;;;;;;10.17;9.17;;;14.70;49.60;;;;;;5092139;28;21262;-52
2021/03/27 01:11:15;;;;;;;10.30;9.07;;;14.70;49.70;;;;;;5092731;28;21207;-53
2021/03/27 01:13:44;;;;;;;9.23;7.73;;;14.70;49.60;;;;;;5073930;28;20642;-53
2021/03/27 01:16:13;;;;;;;6.77;6.07;;;14.70;49.60;;;;;;5072032;28;20616;-52
2021/03/27 01:18:41;;;;;;;11.40;9.03;;;14.70;49.70;;;;;;5091159;28;21035;-54
2021/03/27 01:21:09;;;;;;;9.83;8.40;;;14.70;49.80;;;;;;5092396;28;20652;-54
2021/03/27 01:23:38;;;;;;;8.53;7.83;;;14.70;49.80;;;;;;5092262;28;20644;-55
2021/03/27 01:26:08;;;;;;;9.53;8.53;;;14.70;49.80;;;;;;5091682;28;20616;-54
2021/03/27 01:28:37;;;;;;;10.90;9.80;;;14.70;49.80;;;;;;5091352;28;20678;-54
2021/03/27 01:31:07;;;;;;;9.40;8.40;;;14.70;49.90;;;;;;5092085;28;21234;-52
2021/03/27 01:33:36;;;;;;;10.03;8.37;;;14.60;50.20;;;;;;5091838;28;21055;-53
2021/03/27 01:36:10;;;;;;;8.70;7.80;;;14.50;50.40;;;;;;5073501;28;20612;-51
2021/03/27 01:38:40;;;;;;;10.07;8.60;;;14.40;50.50;;;;;;5092409;28;20687;-54
2021/03/27 01:41:14;;;;;;;9.30;8.40;;;14.40;50.80;;;;;;5092079;28;20648;-54
2021/03/27 01:43:46;;;;;;;10.13;7.73;;;14.30;50.90;;;;;;5091689;28;20659;-54
2021/03/27 01:46:30;;;;;;;11.70;8.93;;;14.30;51.00;;;;;;5090503;28;20632;-53
2021/03/27 01:49:02;;;;;;;9.27;6.93;;;14.30;51.50;;;;;;5091348;28;20695;-54
2021/03/27 01:51:55;;;;;;;9.73;8.73;;;14.20;51.10;;;;;;5091515;28;20620;-54
2021/03/27 01:54:24;;;;;;;10.30;9.30;;;14.30;51.40;;;;;;5091467;28;20628;-54
2021/03/27 01:57:06;;;;;;;10.00;8.87;;;14.20;51.50;;;;;;5092767;28;20628;-52
2021/03/27 01:59:36;;;;;;;11.77;10.57;;;14.20;51.50;;;;;;5091048;28;20644;-51
2021/03/27 02:02:04;;;;;;;8.00;7.20;;;14.20;51.70;;;;;;5091709;28;20623;-52
2021/03/27 02:04:34;;;;;;;10.33;9.33;;;14.20;51.90;;;;;;5090917;28;20975;-51
2021/03/27 02:07:02;;;;;;;9.67;8.67;;;14.20;51.90;;;;;;5088297;28;20667;-53
2021/03/27 02:09:31;;;;;;;9.00;8.10;;;14.20;51.90;;;;;;5090073;28;20692;-52
2021/03/27 02:12:08;;;;;;;8.37;7.50;;;14.20;52.10;;;;;;5089490;28;20659;-51
2021/03/27 02:14:50;;;;;;;11.57;8.30;;;14.20;52.20;;;;;;5089046;28;20714;-51
2021/03/27 02:17:19;;;;;;;9.47;8.47;;;14.10;52.30;;;;;;5089381;28;20664;-52
2021/03/27 02:20:18;;;;;;;10.63;9.03;;;14.10;52.60;;;;;;5088839;28;20635;-51
2021/03/27 02:22:47;;;;;;;11.90;7.63;;;14.00;52.60;;;;;;5063471;28;20750;-52
2021/03/27 02:25:24;;;;;;;8.70;7.80;;;14.00;53.00;;;;;;5090701;28;20620;-52
2021/03/27 02:27:55;;;;;;;11.10;9.57;;;13.90;53.40;;;;;;5090289;28;21023;-52
2021/03/27 02:30:23;;;;;;;12.93;8.80;;;13.70;53.70;;;;;;5091263;28;20642;-51
2021/03/27 02:33:09;;;;;;;14.40;9.60;;;13.70;54.10;;;;;;5090821;28;20662;-52
2021/03/27 02:35:42;;;;;;;8.73;7.83;;;13.60;54.40;;;;;;5091101;28;20677;-52
2021/03/27 02:38:19;;;;;;;8.43;5.30;;;13.60;54.70;;;;;;5090927;28;20682;-52
2021/03/27 02:40:49;;;;;;;4.30;3.90;;;13.70;54.80;;;;;;5079679;28;20669;-51
2021/03/27 02:43:18;;;;;;;6.10;5.50;;;13.70;54.80;;;;;;5078693;28;20976;-50
2021/03/27 02:45:50;;;;;;;6.53;5.90;;;13.70;54.90;;;;;;5090720;28;20662;-51
2021/03/27 02:48:20;;;;;;;6.23;5.60;;;13.80;55.10;;;;;;5090134;28;21296;-52
2021/03/27 02:50:58;;;;;;;6.97;4.40;;;13.80;55.10;;;;;;5090539;28;20669;-51
2021/03/27 02:53:28;;;;;;;4.17;3.80;;;13.80;55.00;;;;;;5090922;28;20994;-52
2021/03/27 02:56:27;;;;;;;5.33;3.80;;;13.80;55.10;;;;;;5090574;28;20656;-51
2021/03/27 02:59:10;;;;;;;5.00;4.60;;;13.70;55.80;;;;;;5089827;28;20637;-51
2021/03/27 03:01:43;;;;;;;5.87;5.27;;;13.70;56.20;;;;;;5090568;28;20663;-51
2021/03/27 03:04:16;;;;;;;5.50;5.00;;;13.60;55.90;;;;;;5090390;28;20619;-52
2021/03/27 03:06:45;;;;;;;8.30;4.80;;;13.70;55.80;;;;;;5072229;28;20623;-52
2021/03/27 03:09:14;;;;;;;6.13;4.47;;;13.70;55.90;;;;;;5090135;28;20692;-52
2021/03/27 03:11:59;;;;;;;6.20;4.47;;;13.70;55.80;;;;;;5090257;28;20614;-52
2021/03/27 03:14:30;;;;;;;6.83;5.47;;;13.70;55.90;;;;;;5090604;28;20636;-53
2021/03/27 03:17:12;;;;;;;5.20;4.67;;;13.70;55.90;;;;;;5090344;28;20628;-53
2021/03/27 03:19:43;;;;;;;3.90;3.37;;;13.80;55.60;;;;;;5084325;28;21200;-53
2021/03/27 03:22:12;;;;;;;5.13;4.10;;;13.80;55.60;;;;;;5090312;28;20656;-53
2021/03/27 03:24:41;;;;;;;5.97;4.57;;;13.70;56.00;;;;;;5090098;28;21071;-54
2021/03/27 03:27:13;;;;;;;5.73;3.67;;;13.70;55.80;;;;;;5089760;28;20667;-53
2021/03/27 03:29:55;;;;;;;4.33;3.30;;;13.70;55.80;;;;;;5081446;28;20772;-52
2021/03/27 03:32:29;;;;;;;3.17;2.60;;;13.60;55.30;;;;;;5084206;22;20656;-51
2021/03/27 03:35:04;;;;;;;7.03;4.00;;;13.50;55.40;;;;;;5053101;28;20735;-54
2021/03/27 03:37:44;;;;;;;7.47;2.80;;;13.40;55.50;;;;;;5070760;28;20632;-52
2021/03/27 03:40:17;;;;;;;1.73;1.63;;;13.40;55.80;;;;;;5071403;28;21197;-50
2021/03/27 03:43:11;;;;;;;1.87;1.10;;;13.40;54.80;;;;;;5071393;28;20678;-51
2021/03/27 03:46:08;;;;;;;0.60;0.40;;;13.30;53.60;;;;;;5071637;28;20663;-51
2021/03/27 03:48:43;;;;;;;2.17;0.90;;;13.10;52.60;;;;;;5070504;28;20728;-51
2021/03/27 03:51:14;;;;;;;1.00;0.90;;;12.90;53.10;;;;;;5070970;28;20693;-50
2021/03/27 03:53:42;;;;;;;0.80;0.60;;;12.70;53.50;;;;;;5070919;28;20733;-51
2021/03/27 03:56:18;;;;;;;2.00;0.73;;;12.50;53.60;;;;;;5070979;28;20617;-51
2021/03/27 03:59:08;;;;;;;1.13;0.83;;;12.40;53.80;;;;;;5070665;28;20654;-51
2021/03/27 04:01:39;;;;;;;1.17;0.70;;;12.30;54.50;;;;;;5071174;28;20625;-52
2021/03/27 04:04:08;;;;;;;4.47;0.50;;;12.20;54.40;;;;;;5069620;28;20633;-51
2021/03/27 04:06:36;;;;;;;2.90;0.70;;;11.90;54.40;;;;;;5071002;28;20649;-50
2021/03/27 04:09:11;;;;;;;3.53;0.57;;;11.60;54.80;;;;;;5069810;28;21251;-51
2021/03/27 04:11:45;;;;;;;0.50;0.40;;;11.50;55.60;;;;;;5070514;28;20632;-51
2021/03/27 04:14:16;;;;;;;2.57;0.47;;;11.60;55.70;;;;;;5070875;28;21251;-52
2021/03/27 04:16:43;;;;;;;1.60;0.50;;;11.60;55.40;;;;;;5070809;28;20652;-51
2021/03/27 04:19:13;;;;;;;0.60;0.50;;;11.50;55.90;;;;;;5070170;28;20653;-51
2021/03/27 04:21:42;;;;;;;0.40;0.23;;;11.40;55.10;;;;;;5070695;28;20657;-51
2021/03/27 04:24:10;;;;;;;0.90;0.50;;;11.30;55.20;;;;;;5070612;28;20680;-52
2021/03/27 04:26:43;;;;;;;0.60;0.50;;;11.30;55.50;;;;;;5070666;28;20760;-51
2021/03/27 04:29:36;;;;;;;0.67;0.57;;;11.30;55.10;;;;;;5070073;28;20759;-51
2021/03/27 04:32:28;;;;;;;1.67;1.57;;;11.20;54.20;;;;;;5070519;28;20674;-50
2021/03/27 04:35:08;;;;;;;1.23;0.30;;;11.20;53.80;;;;;;5070710;28;20675;-51
2021/03/27 04:37:40;;;;;;;0.90;0.40;;;11.00;52.90;;;;;;5070532;28;20685;-52
2021/03/27 04:40:09;;;;;;;0.50;0.40;;;10.90;52.60;;;;;;5067245;28;20679;-51
2021/03/27 04:42:40;;;;;;;0.40;0.40;;;10.80;53.00;;;;;;5072496;28;20687;-51
2021/03/27 04:45:10;;;;;;;0.50;0.43;;;10.70;53.40;;;;;;5074695;28;20645;-52
2021/03/27 04:47:38;;;;;;;0.43;0.30;;;10.70;53.60;;;;;;5074588;28;20698;-51
2021/03/27 04:50:11;;;;;;;0.50;0.40;;;10.70;53.50;;;;;;5056290;28;20706;-51
2021/03/27 04:52:38;;;;;;;3.13;0.77;;;10.50;53.80;;;;;;5074468;28;20657;-52
2021/03/27 04:55:15;;;;;;;0.50;0.47;;;10.40;54.10;;;;;;5074404;28;20685;-52
2021/03/27 04:57:43;;;;;;;1.57;0.87;;;10.30;54.50;;;;;;5073690;28;20657;-52
2021/03/27 05:00:22;;;;;;;0.80;0.60;;;10.30;55.10;;;;;;5074459;28;20629;-52
2021/03/27 05:02:54;;;;;;;1.07;0.50;;;10.30;55.00;;;;;;5074567;28;20684;-52
2021/03/27 05:05:24;;;;;;;0.93;0.50;;;10.10;54.90;;;;;;5065202;28;21182;-54
2021/03/27 05:07:57;;;;;;;0.90;0.50;;;10.00;55.30;;;;;;5055696;28;21014;-54
2021/03/27 05:10:30;;;;;;;0.70;0.33;;;9.90;56.30;;;;;;5073938;28;21080;-54
2021/03/27 05:13:00;;;;;;;1.87;0.63;;;9.80;56.60;;;;;;5073896;28;20793;-51
2021/03/27 05:15:29;;;;;;;0.70;0.40;;;9.80;56.80;;;;;;5074001;28;20674;-54
2021/03/27 05:18:10;;;;;;;0.60;0.40;;;9.90;56.80;;;;;;5072920;28;20668;-53
2021/03/27 05:20:39;;;;;;;0.50;0.40;;;9.80;56.80;;;;;;5053867;28;20656;-52
2021/03/27 05:23:09;;;;;;;1.13;0.57;;;9.80;57.30;;;;;;5053423;28;20719;-52
2021/03/27 05:25:50;;;;;;;0.77;0.43;;;9.70;57.60;;;;;;5053529;28;21036;-51
2021/03/27 05:28:27;;;;;;;0.57;0.57;;;9.60;58.00;;;;;;5060574;28;20621;-51
2021/03/27 05:30:59;;;;;;;1.10;0.37;;;9.50;58.60;;;;;;5074064;28;21035;-52
2021/03/27 05:33:29;;;;;;;0.87;0.60;;;9.40;59.00;;;;;;5061504;28;21318;-53
2021/03/27 05:36:17;;;;;;;4.03;0.80;;;9.40;58.90;;;;;;5053429;28;20614;-52
2021/03/27 05:38:47;;;;;;;0.50;0.40;;;9.40;58.70;;;;;;5064299;28;20694;-52
2021/03/27 05:41:40;;;;;;;1.47;0.63;;;9.40;58.50;;;;;;5067757;28;20662;-52
2021/03/27 05:44:36;;;;;;;1.03;0.50;;;9.40;58.90;;;;;;5053601;28;20768;-52
2021/03/27 05:47:42;;;;;;;0.40;0.40;;;9.30;59.10;;;;;;5056256;28;20617;-52
2021/03/27 05:50:38;;;;;;;0.83;0.60;;;9.30;59.70;;;;;;5063474;28;20689;-52
2021/03/27 05:53:41;;;;;;;0.77;0.40;;;9.20;60.40;;;;;;4998569;28;20660;-52
2021/03/27 05:56:37;;;;;;;0.60;0.40;;;9.20;60.20;;;;;;5038829;28;20624;-52
2021/03/27 05:59:22;;;;;;;0.70;0.40;;;9.20;60.90;;;;;;5072575;28;20656;-52
2021/03/27 06:01:51;;;;;;;3.10;0.47;;;9.10;61.50;;;;;;5073277;28;20629;-53
2021/03/27 06:04:28;;;;;;;0.50;0.43;;;9.10;62.20;;;;;;5071586;28;20692;-52
2021/03/27 06:07:38;;;;;;;1.33;0.40;;;9.20;63.00;;;;;;5072733;28;20655;-52
2021/03/27 06:10:18;;;;;;;1.20;0.40;;;9.30;63.60;;;;;;5053066;28;20689;-52
2021/03/27 06:12:53;;;;;;;0.60;0.60;;;9.30;61.80;;;;;;5052879;28;20741;-52
2021/03/27 06:15:45;;;;;;;0.60;0.40;;;9.40;61.80;;;;;;5053267;28;20675;-52
2021/03/27 06:18:22;;;;;;;1.60;0.67;;;9.40;60.90;;;;;;5024174;28;20660;-52
2021/03/27 06:20:58;;;;;;;2.20;0.67;;;9.50;60.40;;;;;;5072183;28;20636;-52
2021/03/27 06:23:33;;;;;;;0.80;0.57;;;9.50;59.90;;;;;;5073335;28;20656;-52
2021/03/27 06:26:30;;;;;;;0.70;0.70;;;9.50;60.00;;;;;;5072675;28;20617;-53
2021/03/27 06:29:09;;;;;;;2.40;0.87;;;9.50;59.80;;;;;;5072088;28;20673;-53
2021/03/27 06:31:48;;;;;;;1.70;0.77;;;9.50;59.50;;;;;;5053051;28;21170;-53
2021/03/27 06:34:31;;;;;;;1.30;0.90;;;9.50;59.90;;;;;;5052023;28;20658;-54
2021/03/27 06:37:41;;;;;;;2.10;1.00;;;9.50;58.90;;;;;;5057265;28;20668;-52
2021/03/27 06:40:34;;;;;;;1.23;0.93;;;9.50;58.60;;;;;;5047331;28;20710;-52
2021/03/27 06:43:26;;;;;;;3.47;0.77;;;9.60;57.80;;;;;;5051837;28;21206;-52
2021/03/27 06:46:07;;;;;;;2.30;0.97;;;9.70;57.80;;;;;;5058566;28;20629;-53
2021/03/27 06:48:57;;;;;;;4.03;1.20;;;9.70;57.00;;;;;;5066476;28;20620;-51
2021/03/27 06:51:47;;;;;;;1.43;0.93;;;9.60;56.70;;;;;;5071554;28;20683;-51
2021/03/27 06:54:22;;;;;;;3.37;1.33;;;9.60;56.50;;;;;;5071885;28;21016;-51
2021/03/27 06:56:56;;;;;;;2.47;0.80;;;9.70;56.00;;;;;;5071838;28;20617;-51
2021/03/27 06:59:43;;;;;;;1.83;1.13;;;9.70;55.50;;;;;;5071440;28;20629;-51
2021/03/27 07:02:29;;;;;;;5.57;1.07;;;9.80;55.00;;;;;;5071800;28;20649;-52
2021/03/27 07:05:32;;;;;;;3.57;1.10;;;9.90;55.00;;;;;;5059238;28;20629;-52
2021/03/27 07:08:05;;;;;;;1.03;0.80;;;9.90;54.70;;;;;;5058113;28;21185;-51
2021/03/27 07:11:22;;;;;;;1.40;0.93;;;10.00;53.50;;;;;;5069805;28;20715;-52
2021/03/27 07:14:21;;;;;;;1.73;0.90;;;10.30;53.60;;;;;;4973630;28;21100;-52
2021/03/27 07:17:14;;;;;;;2.60;1.63;;;10.50;52.60;;;;;;4989957;28;20690;-51
2021/03/27 07:20:22;;;;;;;2.27;1.40;;;10.80;51.60;;;;;;5048550;28;20618;-52
2021/03/27 07:23:01;;;;;;;1.00;0.77;;;11.00;51.30;;;;;;5030236;28;20708;-52
2021/03/27 07:25:53;;;;;;;2.10;0.90;;;11.10;50.60;;;;;;5052197;28;21209;-52
2021/03/27 07:28:36;;;;;;;1.50;0.73;;;11.10;50.50;;;;;;5051231;28;20684;-52
2021/03/27 07:31:31;;;;;;;2.60;1.67;;;10.90;50.60;;;;;;5051106;28;21193;-52
2021/03/27 07:34:50;;;;;;;2.43;0.93;;;10.70;50.90;;;;;;5051276;28;20882;-52
2021/03/27 07:38:11;;;;;;;1.00;0.90;;;10.50;51.70;;;;;;5062550;28;20660;-52
2021/03/27 07:40:43;;;;;;;1.77;0.90;;;10.40;51.80;;;;;;5023741;28;20609;-52
2021/03/27 07:43:37;;;;;;;3.67;0.90;;;10.30;51.90;;;;;;5071637;28;20977;-53
2021/03/27 07:46:28;;;;;;;3.03;1.43;;;10.30;52.10;;;;;;5052242;28;20660;-53
2021/03/27 07:49:22;;;;;;;2.63;1.00;;;10.40;51.80;;;;;;5070929;28;21184;-52
2021/03/27 07:52:19;;;;;;;4.87;1.23;;;10.20;50.60;;;;;;5070914;28;20675;-51
2021/03/27 07:55:23;;;;;;;2.40;0.90;;;10.10;49.20;;;;;;5071060;28;20633;-53
2021/03/27 07:58:06;;;;;;;4.87;1.20;;;9.90;50.20;;;;;;5070338;28;21032;-53
2021/03/27 08:00:55;;;;;;;2.07;1.03;;;9.90;50.80;;;;;;5071390;28;21165;-53
2021/03/27 08:03:38;;;;;;;1.10;0.90;;;10.00;49.90;;;;;;5071068;28;21042;-52
2021/03/27 08:06:26;;;;;;;2.70;1.03;;;10.00;49.70;;;;;;5070607;28;21264;-53
2021/03/27 08:09:28;;;;;;;2.40;1.63;;;10.10;49.80;;;;;;5061732;28;20650;-53
2021/03/27 08:12:15;;;;;;;3.97;1.53;;;10.20;50.00;;;;;;5003855;28;20668;-53
2021/03/27 08:14:57;;;;;;;3.33;2.00;;;10.30;50.10;;;;;;5064015;28;20644;-51
2021/03/27 08:17:32;;;;;;;2.93;1.70;;;10.60;50.00;;;;;;5069181;28;20653;-51
2021/03/27 08:20:11;;;;;;;2.90;2.20;;;10.90;49.90;;;;;;5074979;28;20666;-52
2021/03/27 08:23:11;;;;;;;2.20;1.67;;;11.30;49.50;;;;;;5057916;28;20720;-53
2021/03/27 08:25:41;;;;;;;5.00;2.30;;;11.30;48.80;;;;;;5054201;28;21032;-52
2021/03/27 08:28:44;;;;;;;3.97;1.63;;;11.20;48.00;;;;;;5059836;28;20631;-51
2021/03/27 08:31:24;;;;;;;4.10;2.10;;;11.60;51.20;;;;;;5074343;28;20718;-51
2021/03/27 08:34:23;;;;;;;5.57;2.00;;;11.90;48.80;;;;;;5054952;28;20697;-51
2021/03/27 08:37:12;;;;;;;8.03;2.70;;;12.40;48.40;;;;;;5061284;28;20706;-51
2021/03/27 08:39:51;;;;;;;6.10;2.40;;;13.00;46.80;;;;;;5065366;28;21080;-51
2021/03/27 08:42:39;;;;;;;6.10;2.03;;;13.20;44.00;;;;;;5067192;28;20685;-51
2021/03/27 08:45:28;;;;;;;5.47;1.63;;;12.50;45.00;;;;;;5004217;28;20629;-51
2021/03/27 08:48:06;;;;;;;2.80;1.70;;;11.90;44.00;;;;;;5021339;28;20702;-51
2021/03/27 08:51:19;;;;;;;3.00;2.80;;;11.40;45.00;;;;;;5074483;28;20693;-51
2021/03/27 08:54:08;;;;;;;10.60;2.10;;;11.00;45.80;;;;;;5067988;28;20698;-52
2021/03/27 08:57:02;;;;;;;7.70;2.20;;;10.80;46.40;;;;;;5074176;28;22169;-51
2021/03/27 08:59:53;;;;;;;2.57;1.40;;;10.80;47.00;;;;;;5073655;28;20617;-51
2021/03/27 09:02:52;;;;;;;3.43;1.37;;;10.80;46.80;;;;;;5067023;28;21189;-51
2021/03/27 09:05:41;;;;;;;5.13;1.60;;;10.70;46.70;;;;;;5041807;28;20714;-52
2021/03/27 09:08:36;;;;;;;2.57;1.50;;;10.70;47.30;;;;;;5053096;28;20622;-51
2021/03/27 09:11:12;;;;;;;7.17;2.60;;;10.60;46.90;;;;;;5053618;28;20673;-52
2021/03/27 09:13:46;;;;;;;9.60;1.90;;;10.60;47.30;;;;;;5053122;28;20758;-51
2021/03/27 09:16:44;;;;;;;4.87;2.70;;;10.70;47.00;;;;;;5068916;28;20616;-53
2021/03/27 09:19:27;;;;;;;4.93;2.40;;;11.10;47.20;;;;;;5041347;28;20807;-52
2021/03/27 09:22:15;;;;;;;5.40;1.60;;;11.40;46.70;;;;;;5062373;28;20620;-52
2021/03/27 09:24:43;;;;;;;3.07;1.90;;;11.60;45.70;;;;;;5056291;28;20632;-53
2021/03/27 09:27:45;;;;;;;2.70;1.37;;;11.60;45.10;;;;;;5055111;28;20610;-52
2021/03/27 09:30:29;;;;;;;3.93;1.70;;;11.60;45.10;;;;;;5041861;28;20695;-53
2021/03/27 09:33:01;;;;;;;7.00;2.60;;;11.50;44.70;;;;;;5062355;28;20669;-51
2021/03/27 09:35:31;;;;;;;7.63;1.53;;;11.40;44.80;;;;;;5072270;28;20621;-52
2021/03/27 09:38:08;;;;;;;6.17;2.07;;;11.50;44.60;;;;;;5072337;28;21006;-51
2021/03/27 09:40:39;;;;;;;3.00;2.03;;;11.60;44.60;;;;;;5072782;28;20641;-51
2021/03/27 09:43:45;;;;;;;8.73;2.07;;;11.50;45.00;;;;;;5072132;28;21282;-50
2021/03/27 09:46:16;;;;;;;4.37;2.00;;;11.40;44.60;;;;;;5044893;28;20633;-51
2021/03/27 09:48:51;;;;;;;8.00;2.43;;;11.30;44.90;;;;;;5072937;28;20636;-52
2021/03/27 09:51:20;;;;;;;5.50;3.87;;;11.40;45.50;;;;;;5072746;28;20684;-55
2021/03/27 09:54:02;;;;;;;3.80;2.37;;;11.60;45.20;;;;;;5052043;28;20713;-51
2021/03/27 09:56:33;;;;;;;3.67;3.20;;;11.70;45.30;;;;;;5052974;28;20621;-50
2021/03/27 09:59:17;;;;;;;2.00;1.13;;;11.80;44.90;;;;;;5052423;28;20622;-50
2021/03/27 10:01:46;;;;;;;2.73;1.20;;;11.90;44.60;;;;;;5063662;28;20636;-51
2021/03/27 10:04:30;;;;;;;2.30;1.90;;;11.90;44.40;;;;;;5052491;28;20707;-50
2021/03/27 10:07:04;;;;;;;5.20;1.63;;;11.90;45.20;;;;;;5068104;28;20625;-49
2021/03/27 10:09:35;;;;;;;2.17;1.40;;;12.00;44.30;;;;;;5072388;28;20637;-49
2021/03/27 10:12:04;;;;;;;2.90;1.60;;;11.70;43.60;;;;;;5072014;28;20621;-52
2021/03/27 10:14:34;;;;;;;3.03;1.90;;;11.70;44.30;;;;;;5072503;28;20683;-51
2021/03/27 10:17:04;;;;;;;5.83;2.37;;;11.60;44.90;;;;;;5063924;28;21116;-49
2021/03/27 10:19:34;;;;;;;3.73;1.60;;;11.70;44.00;;;;;;5051901;28;20654;-50
2021/03/27 10:22:11;;;;;;;4.13;2.17;;;11.60;44.00;;;;;;5062557;28;20613;-48
2021/03/27 10:24:43;;;;;;;1.50;0.60;;;11.50;43.90;;;;;;5072267;28;21234;-49
2021/03/27 10:27:13;;;;;;;4.30;1.17;;;11.40;44.70;;;;;;5071439;28;20680;-52
2021/03/27 10:29:41;;;;;;;1.43;0.90;;;11.30;45.80;;;;;;5064991;28;20657;-52
2021/03/27 10:32:47;;;;;;;11.77;2.30;;;11.30;45.50;;;;;;5071424;28;20660;-55
2021/03/27 10:35:26;;;;;;;5.20;1.43;;;11.10;47.30;;;;;;5052224;28;20676;-50
2021/03/27 10:37:56;;;;;;;4.00;2.00;;;11.00;50.00;;;;;;5051489;28;20621;-50
2021/03/27 10:40:34;;;;;;;3.47;1.60;;;10.80;53.00;;;;;;5058158;28;21234;-51
2021/03/27 10:43:21;;;;;;;4.03;3.70;;;10.80;54.50;;;;;;5059856;28;21150;-51
2021/03/27 10:46:00;;;;;;;2.40;1.70;;;10.80;56.10;;;;;;5068178;28;20629;-51
2021/03/27 10:48:48;;;;;;;2.93;1.90;;;11.40;57.20;;;;;;5062091;28;20645;-51
2021/03/27 10:51:24;;;;;;;7.30;4.40;;;11.80;55.00;;;;;;5068414;28;20694;-51
2021/03/27 10:54:01;;;;;;;2.33;2.10;;;12.10;54.70;;;;;;5071617;28;20649;-50
2021/03/27 10:56:37;;;;;;;6.20;3.60;;;12.40;52.30;;;;;;5071804;28;20620;-50
2021/03/27 10:59:12;;;;;;;3.63;2.30;;;12.40;51.20;;;;;;5069319;28;21064;-51
2021/03/27 11:02:00;;;;;;;2.03;1.70;;;12.30;51.30;;;;;;5069111;28;20996;-49
2021/03/27 11:04:48;;;;;;;3.57;2.60;;;12.50;50.70;;;;;;5051649;28;20715;-54
2021/03/27 11:07:52;;;;;;;3.23;1.23;;;12.50;49.90;;;;;;5051349;28;20964;-51
2021/03/27 11:10:39;;;;;;;16.83;15.43;;;12.40;48.90;;;;;;5028661;28;21110;-52
2021/03/27 11:13:39;;;;;;;3.70;3.20;;;12.30;49.30;;;;;;5051451;28;20650;-52
2021/03/27 11:16:23;;;;;;;4.00;2.10;;;12.50;49.60;;;;;;5007845;28;20650;-51
2021/03/27 11:19:12;;;;;;;3.67;2.17;;;13.10;48.90;;;;;;5070243;28;20629;-51
2021/03/27 11:21:53;;;;;;;1.47;1.30;;;13.00;47.30;;;;;;5070285;28;20678;-51
2021/03/27 11:24:29;;;;;;;2.57;2.30;;;12.90;46.60;;;;;;5065660;28;20679;-52
2021/03/27 11:27:34;;;;;;;1.20;1.10;;;12.90;45.10;;;;;;5051491;28;20671;-51
2021/03/27 11:30:04;;;;;;;1.53;1.20;;;13.00;43.80;;;;;;4989937;28;21034;-52
2021/03/27 11:32:34;;;;;;;7.00;1.93;;;13.00;44.80;;;;;;4987652;28;20664;-52
2021/03/27 11:35:03;;;;;;;3.53;1.70;;;12.70;44.00;;;;;;5028579;28;20627;-51
2021/03/27 11:37:43;;;;;;;3.57;1.20;;;12.40;45.10;;;;;;5069324;28;21146;-50
2021/03/27 11:40:21;;;;;;;2.53;1.37;;;12.20;46.00;;;;;;5057720;28;20655;-52
2021/03/27 11:42:56;;;;;;;5.17;1.40;;;12.10;46.10;;;;;;5052078;28;20646;-51
2021/03/27 11:45:25;;;;;;;1.63;1.33;;;12.20;46.30;;;;;;5057507;28;20629;-53
2021/03/27 11:47:59;;;;;;;2.50;1.60;;;12.30;46.80;;;;;;5068946;28;20629;-51
2021/03/27 11:50:49;;;;;;;2.53;1.20;;;12.30;46.00;;;;;;5070752;28;20668;-53
2021/03/27 11:53:30;;;;;;;1.50;1.40;;;12.30;43.90;;;;;;5066037;28;21017;-51
2021/03/27 11:56:02;;;;;;;2.47;1.40;;;12.30;44.30;;;;;;5061838;28;20696;-52
2021/03/27 11:58:33;;;;;;;2.03;1.30;;;12.30;44.40;;;;;;5061081;28;20730;-51
2021/03/27 12:01:01;;;;;;;4.90;1.10;;;12.30;44.80;;;;;;5070041;28;20677;-51
2021/03/27 12:03:47;;;;;;;2.33;1.20;;;12.30;43.50;;;;;;5064586;28;20713;-50
2021/03/27 12:06:22;;;;;;;1.53;1.43;;;12.30;43.10;;;;;;5062722;28;20663;-50
2021/03/27 12:08:55;;;;;;;1.63;1.20;;;12.30;43.20;;;;;;5070677;28;20743;-51
2021/03/27 12:11:28;;;;;;;2.80;1.80;;;12.20;42.80;;;;;;5058269;28;21255;-51
2021/03/27 12:13:58;;;;;;;3.53;1.40;;;12.20;42.70;;;;;;5050296;28;20664;-51
2021/03/27 12:16:30;;;;;;;2.97;1.50;;;12.20;42.90;;;;;;5033400;28;20638;-51
2021/03/27 12:19:17;;;;;;;6.00;1.60;;;12.20;43.10;;;;;;5071400;28;20741;-51
2021/03/27 12:21:46;;;;;;;3.93;1.30;;;12.10;44.00;;;;;;5058752;28;20679;-50
2021/03/27 12:24:20;;;;;;;3.33;1.60;;;12.20;45.20;;;;;;5069793;28;20687;-50
2021/03/27 12:26:53;;;;;;;3.50;1.37;;;12.30;45.00;;;;;;5050567;28;20634;-51
2021/03/27 12:29:21;;;;;;;4.33;2.33;;;12.50;45.40;;;;;;5050085;28;20657;-52
2021/03/27 12:32:13;;;;;;;4.20;1.70;;;12.70;45.00;;;;;;5050506;28;20682;-52
2021/03/27 12:34:43;;;;;;;1.03;0.83;;;12.80;44.40;;;;;;5050169;28;20758;-51
2021/03/27 12:37:13;;;;;;;3.10;1.60;;;12.90;41.90;;;;;;5065536;28;20625;-50
2021/03/27 12:39:42;;;;;;;3.40;1.77;;;13.10;41.10;;;;;;5069515;28;20686;-51
2021/03/27 12:42:13;;;;;;;3.83;1.23;;;13.50;40.50;;;;;;5068410;28;21029;-52
2021/03/27 12:44:43;;;;;;;3.33;1.10;;;13.60;40.00;;;;;;5069705;28;20664;-52
2021/03/27 12:47:41;;;;;;;2.10;1.33;;;13.70;40.20;;;;;;5069597;28;20657;-51
2021/03/27 12:50:29;;;;;;;1.67;1.30;;;13.50;40.20;;;;;;4987543;28;20764;-52
2021/03/27 12:53:35;;;;;;;3.37;1.50;;;13.30;39.70;;;;;;5062824;28;20755;-52
2021/03/27 12:56:19;;;;;;;4.83;2.43;;;13.10;39.10;;;;;;4961919;28;21352;-51
2021/03/27 12:58:50;;;;;;;4.10;1.10;;;12.90;40.60;;;;;;4966661;28;20629;-50
2021/03/27 13:01:39;;;;;;;0.90;0.90;;;12.80;40.70;;;;;;5008602;28;21213;-51
2021/03/27 13:04:23;;;;;;;4.17;1.63;;;13.00;40.90;;;;;;5041903;28;21082;-53
2021/03/27 13:07:01;;;;;;;3.87;2.30;;;13.60;40.80;;;;;;5053506;28;21177;-51
2021/03/27 13:09:55;;;;;;;2.23;1.10;;;14.40;40.30;;;;;;5053787;28;20656;-52
2021/03/27 13:12:23;;;;;;;2.60;1.43;;;14.50;38.90;;;;;;5067339;28;21075;-53
2021/03/27 13:15:21;;;;;;;9.87;1.70;;;14.40;38.80;;;;;;5073447;28;20720;-52
2021/03/27 13:18:13;;;;;;;5.20;1.43;;;14.60;38.70;;;;;;5072464;28;20717;-50
2021/03/27 13:20:41;;;;;;;5.97;2.03;;;14.80;38.60;;;;;;5055443;28;20697;-52
2021/03/27 13:23:12;;;;;;;1.60;1.50;;;14.80;37.40;;;;;;5073243;28;20829;-51
2021/03/27 13:25:40;;;;;;;4.77;1.40;;;15.10;37.10;;;;;;5073348;28;20664;-51
2021/03/27 13:28:15;;;;;;;5.60;1.50;;;15.60;36.30;;;;;;5072264;28;20652;-50
2021/03/27 13:30:48;;;;;;;1.97;1.37;;;16.00;36.00;;;;;;5072713;28;20692;-51
2021/03/27 13:33:21;;;;;;;3.03;1.60;;;16.30;34.30;;;;;;5072609;28;20735;-50
2021/03/27 13:36:22;;;;;;;3.20;1.20;;;15.80;35.10;;;;;;5072912;28;20770;-50
2021/03/27 13:38:56;;;;;;;2.10;1.50;;;15.00;35.60;;;;;;5069057;28;20656;-50
2021/03/27 13:41:53;;;;;;;6.50;2.67;;;14.50;38.10;;;;;;5072719;28;21059;-52
2021/03/27 13:44:26;;;;;;;3.27;1.40;;;14.30;37.50;;;;;;5072244;28;21064;-51
2021/03/27 13:47:02;;;;;;;6.53;2.00;;;14.40;37.90;;;;;;5073284;28;20621;-51
2021/03/27 13:49:30;;;;;;;3.97;3.00;;;14.60;37.60;;;;;;5053529;28;20621;-53